createdAt,value
2022-09-23T00:01:09.870Z,10.90
2022-09-23T00:03:39.125Z,7.93
2022-09-23T00:06:24.241Z,9.67
2022-09-23T00:08:52.632Z,7.68
2022-09-23T00:11:22.554Z,10.00
2022-09-23T00:13:52.437Z,8.43
2022-09-23T00:16:22.302Z,6.60
2022-09-23T00:18:51.751Z,7.40
2022-09-23T00:21:20.462Z,7.50
2022-09-23T00:23:47.535Z,10.18
2022-09-23T00:26:16.693Z,8.77
2022-09-23T00:28:43.638Z,7.00
2022-09-23T00:31:25.830Z,6.83
2022-09-23T00:33:54.767Z,8.95
2022-09-23T00:36:21.277Z,5.45
2022-09-23T00:38:47.869Z,6.28
2022-09-23T00:41:17.650Z,14.10
2022-09-23T00:43:47.978Z,7.10
2022-09-23T00:46:22.033Z,8.13
2022-09-23T00:48:56.016Z,7.13
2022-09-23T00:51:26.414Z,10.32
2022-09-23T00:53:53.125Z,6.22
2022-09-23T00:56:22.253Z,6.47
2022-09-23T00:58:50.288Z,6.65
2022-09-23T01:01:17.130Z,6.85
2022-09-23T01:03:45.614Z,6.70
2022-09-23T01:06:13.535Z,6.72
2022-09-23T01:08:42.266Z,6.03
2022-09-23T01:11:34.052Z,6.22
2022-09-23T01:14:05.479Z,3.95
2022-09-23T01:16:44.423Z,5.63
2022-09-23T01:19:32.564Z,6.57
2022-09-23T01:22:18.388Z,5.40
2022-09-23T01:25:32.339Z,6.10
2022-09-23T01:28:07.696Z,6.68
2022-09-23T01:31:02.291Z,6.20
2022-09-23T01:33:49.274Z,6.68
2022-09-23T01:36:51.586Z,5.80
2022-09-23T01:39:33.203Z,6.32
2022-09-23T01:42:31.515Z,3.97
2022-09-23T01:45:07.130Z,7.47
2022-09-23T01:47:38.690Z,4.22
2022-09-23T01:50:42.519Z,5.97
2022-09-23T01:53:19.121Z,5.90
2022-09-23T01:55:51.525Z,5.40
2022-09-23T01:58:26.951Z,4.95
2022-09-23T02:00:59.750Z,6.05
2022-09-23T02:03:33.747Z,5.67
2022-09-23T02:06:10.633Z,5.53
2022-09-23T02:08:50.122Z,6.65
2022-09-23T02:11:18.039Z,5.90
2022-09-23T02:13:56.005Z,5.05
2022-09-23T02:16:26.357Z,5.20
2022-09-23T02:18:58.087Z,5.68
2022-09-23T02:21:36.259Z,7.78
2022-09-23T02:24:10.202Z,10.18
2022-09-23T02:27:06.021Z,5.40
2022-09-23T02:30:00.611Z,4.80
2022-09-23T02:32:42.035Z,4.88
2022-09-23T02:35:15.830Z,4.57
2022-09-23T02:37:54.049Z,3.92
2022-09-23T02:40:26.385Z,4.30
2022-09-23T02:43:05.704Z,5.60
2022-09-23T02:45:33.545Z,5.55
2022-09-23T02:48:21.948Z,5.05
2022-09-23T02:50:48.942Z,5.47
2022-09-23T02:53:16.113Z,6.45
2022-09-23T02:55:43.351Z,5.10
2022-09-23T02:58:13.325Z,9.32
2022-09-23T03:01:06.088Z,5.90
2022-09-23T03:04:10.242Z,6.93
2022-09-23T03:06:45.744Z,8.10
2022-09-23T03:09:25.491Z,5.40
2022-09-23T03:12:32.334Z,5.72
2022-09-23T03:15:09.368Z,6.35
2022-09-23T03:17:47.391Z,5.47
2022-09-23T03:20:17.645Z,6.63
2022-09-23T03:22:55.720Z,8.37
2022-09-23T03:25:24.814Z,4.40
2022-09-23T03:27:58.161Z,8.52
2022-09-23T03:30:26.403Z,7.38
2022-09-23T03:32:54.969Z,10.75
2022-09-23T03:35:24.768Z,5.33
2022-09-23T03:38:07.108Z,4.90
2022-09-23T03:40:41.803Z,5.78
2022-09-23T03:43:09.559Z,5.30
2022-09-23T03:45:36.461Z,5.70
2022-09-23T03:48:03.887Z,6.30
2022-09-23T03:50:30.525Z,7.03
2022-09-23T03:52:57.024Z,5.90
2022-09-23T03:55:23.567Z,5.82
2022-09-23T03:57:50.028Z,5.00
2022-09-23T04:00:16.565Z,6.73
2022-09-23T04:02:43.139Z,6.63
2022-09-23T04:05:11.308Z,7.05
2022-09-23T04:07:38.229Z,6.53
2022-09-23T04:10:05.955Z,5.65
2022-09-23T04:12:32.500Z,5.70
2022-09-23T04:14:58.938Z,5.95
2022-09-23T04:17:25.492Z,5.78
2022-09-23T04:19:51.972Z,5.28
2022-09-23T04:22:18.530Z,5.30
2022-09-23T04:24:45.080Z,5.17
2022-09-23T04:27:11.564Z,6.15
2022-09-23T04:29:38.108Z,8.02
2022-09-23T04:32:04.721Z,5.68
2022-09-23T04:34:31.324Z,7.03
2022-09-23T04:36:57.862Z,5.77
2022-09-23T04:39:24.337Z,6.43
2022-09-23T04:41:50.884Z,6.35
2022-09-23T04:44:17.390Z,7.63
2022-09-23T04:46:47.408Z,7.53
2022-09-23T04:49:15.170Z,5.10
2022-09-23T04:51:43.375Z,6.10
2022-09-23T04:54:11.931Z,6.53
2022-09-23T04:56:39.641Z,7.43
2022-09-23T04:59:06.973Z,6.38
2022-09-23T05:01:35.063Z,4.53
2022-09-23T05:04:05.262Z,5.15
2022-09-23T05:06:35.861Z,5.35
2022-09-23T05:09:05.378Z,5.00
2022-09-23T05:11:32.456Z,6.40
2022-09-23T05:13:59.498Z,5.30
2022-09-23T05:16:27.077Z,4.78
2022-09-23T05:18:54.384Z,7.15
2022-09-23T05:21:23.376Z,6.18
2022-09-23T05:23:54.159Z,5.30
2022-09-23T05:26:22.472Z,4.17
2022-09-23T05:28:48.960Z,6.25
2022-09-23T05:31:20.362Z,6.25
2022-09-23T05:33:57.172Z,4.80
2022-09-23T05:36:25.176Z,5.97
2022-09-23T05:38:52.572Z,8.90
2022-09-23T05:41:22.881Z,6.78
2022-09-23T05:43:51.624Z,6.55
2022-09-23T05:46:23.510Z,9.10
2022-09-23T05:48:50.644Z,7.32
2022-09-23T05:51:20.003Z,5.67
2022-09-23T05:53:47.858Z,4.97
2022-09-23T05:56:19.611Z,6.38
2022-09-23T05:58:48.940Z,5.40
2022-09-23T06:01:18.322Z,7.95
2022-09-23T06:03:48.879Z,5.00
2022-09-23T06:06:20.134Z,4.72
2022-09-23T06:08:47.762Z,4.05
2022-09-23T06:11:14.597Z,6.80
2022-09-23T06:13:41.725Z,5.05
2022-09-23T06:16:10.818Z,8.20
2022-09-23T06:18:42.312Z,6.18
2022-09-23T06:21:14.129Z,6.60
2022-09-23T06:23:42.160Z,5.07
2022-09-23T06:26:10.915Z,5.88
2022-09-23T06:28:39.614Z,5.27
2022-09-23T06:31:13.154Z,6.28
2022-09-23T06:33:40.506Z,7.93
2022-09-23T06:36:07.775Z,7.65
2022-09-23T06:38:35.295Z,4.97
2022-09-23T06:41:03.329Z,7.27
2022-09-23T06:43:30.584Z,5.82
2022-09-23T06:46:02.029Z,8.05
2022-09-23T06:48:28.874Z,5.13
2022-09-23T06:50:59.447Z,5.30
2022-09-23T06:53:25.977Z,4.37
2022-09-23T06:56:06.760Z,4.43
2022-09-23T06:58:35.489Z,4.82
2022-09-23T07:01:03.777Z,5.88
2022-09-23T07:03:31.698Z,5.82
2022-09-23T07:05:59.089Z,4.50
2022-09-23T07:08:27.483Z,6.00
2022-09-23T07:10:55.080Z,7.85
2022-09-23T07:13:21.669Z,4.78
2022-09-23T07:15:52.998Z,7.25
2022-09-23T07:18:22.221Z,5.23
2022-09-23T07:20:48.838Z,4.13
2022-09-23T07:23:17.487Z,5.15
2022-09-23T07:25:46.562Z,4.55
2022-09-23T07:28:13.682Z,4.80
2022-09-23T07:30:48.953Z,3.77
2022-09-23T07:33:31.554Z,8.13
2022-09-23T07:35:59.143Z,5.80
2022-09-23T07:38:30.123Z,7.35
2022-09-23T07:41:05.197Z,6.97
2022-09-23T07:43:34.619Z,8.63
2022-09-23T07:46:03.867Z,6.68
2022-09-23T07:48:34.342Z,4.13
2022-09-23T07:51:07.573Z,4.70
2022-09-23T07:53:34.467Z,4.55
2022-09-23T07:56:01.236Z,4.87
2022-09-23T07:58:27.723Z,4.65
2022-09-23T08:00:54.180Z,6.88
2022-09-23T08:03:21.271Z,5.93
2022-09-23T08:05:47.833Z,10.55
2022-09-23T08:08:14.374Z,7.03
2022-09-23T08:10:40.982Z,13.88
2022-09-23T08:13:07.545Z,4.88
2022-09-23T08:15:34.262Z,4.55
2022-09-23T08:18:01.758Z,9.35
2022-09-23T08:20:47.760Z,4.73
2022-09-23T08:23:16.631Z,6.00
2022-09-23T08:25:47.045Z,6.72
2022-09-23T08:28:16.574Z,4.93
2022-09-23T08:30:44.864Z,3.80
2022-09-23T08:33:12.219Z,6.43
2022-09-23T08:35:38.963Z,5.00
2022-09-23T08:38:06.171Z,5.35
2022-09-23T08:40:35.518Z,5.13
2022-09-23T08:43:02.288Z,11.75
2022-09-23T08:45:29.069Z,10.77
2022-09-23T08:48:01.758Z,16.08
2022-09-23T08:50:41.221Z,6.80
2022-09-23T08:53:28.679Z,5.63
2022-09-23T08:55:59.541Z,5.10
2022-09-23T08:58:55.129Z,7.57
2022-09-23T09:01:44.330Z,6.95
2022-09-23T09:04:15.989Z,7.65
2022-09-23T09:10:22.309Z,5.85
2022-09-23T09:13:44.791Z,7.73
2022-09-23T09:16:36.533Z,7.95
2022-09-23T09:19:17.047Z,8.07
2022-09-23T09:21:47.937Z,9.27
2022-09-23T09:24:21.684Z,8.68
2022-09-23T09:26:48.231Z,13.10
2022-09-23T09:29:35.269Z,8.70
2022-09-23T09:32:15.292Z,4.65
2022-09-23T09:34:54.683Z,3.65
2022-09-23T09:37:39.159Z,4.40
2022-09-23T09:40:08.841Z,3.87
2022-09-23T09:42:45.176Z,5.05
2022-09-23T09:45:19.725Z,4.78
2022-09-23T09:48:27.325Z,3.63
2022-09-23T09:50:55.884Z,6.05
2022-09-23T09:53:25.778Z,3.87
2022-09-23T09:56:08.767Z,4.60
2022-09-23T09:58:45.997Z,5.93
2022-09-23T10:01:31.071Z,5.13
2022-09-23T10:04:00.572Z,6.95
2022-09-23T10:06:29.820Z,4.27
2022-09-23T10:09:10.760Z,6.00
2022-09-23T10:11:38.752Z,3.83
2022-09-23T10:14:18.891Z,15.32
2022-09-23T10:16:48.622Z,3.28
2022-09-23T10:19:27.436Z,3.30
2022-09-23T10:21:59.633Z,3.80
2022-09-23T10:24:32.056Z,5.90
2022-09-23T10:27:07.518Z,3.20
2022-09-23T10:29:34.019Z,6.40
2022-09-23T10:32:17.030Z,4.30
2022-09-23T10:34:46.682Z,4.05
2022-09-23T10:37:33.831Z,5.93
2022-09-23T10:40:24.986Z,4.03
2022-09-23T10:43:19.732Z,3.58
2022-09-23T10:46:08.270Z,6.60
2022-09-23T10:48:58.031Z,2.47
2022-09-23T10:51:43.605Z,3.45
2022-09-23T10:54:31.313Z,3.17
2022-09-23T10:57:27.258Z,3.25
2022-09-23T11:00:04.520Z,3.07
2022-09-23T11:03:06.767Z,3.65
2022-09-23T11:06:05.156Z,3.67
2022-09-23T11:08:59.164Z,5.55
2022-09-23T11:11:34.518Z,4.72
2022-09-23T11:14:25.633Z,5.23
2022-09-23T11:17:14.521Z,3.90
2022-09-23T11:19:51.417Z,3.72
2022-09-23T11:22:47.013Z,3.70
2022-09-23T11:25:27.956Z,5.18
2022-09-23T11:28:09.693Z,3.70
2022-09-23T11:31:05.468Z,3.83
2022-09-23T11:33:44.748Z,3.50
2022-09-23T11:36:37.906Z,5.00
2022-09-23T11:39:27.407Z,3.45
2022-09-23T11:41:56.670Z,3.57
2022-09-23T11:44:35.562Z,4.57
2022-09-23T11:47:10.837Z,4.68
2022-09-23T11:49:53.680Z,3.28
2022-09-23T11:52:42.263Z,2.67
2022-09-23T11:55:28.868Z,4.93
2022-09-23T11:58:22.649Z,4.63
2022-09-23T12:01:03.135Z,9.15
2022-09-23T12:03:48.103Z,6.85
2022-09-23T12:06:40.224Z,3.10
2022-09-23T12:09:47.335Z,4.57
2022-09-23T12:12:21.914Z,4.82
2022-09-23T12:14:56.614Z,2.42
2022-09-23T12:17:44.651Z,2.75
2022-09-23T12:20:41.375Z,2.30
2022-09-23T12:23:18.960Z,2.60
2022-09-23T12:25:49.884Z,3.47
2022-09-23T12:28:28.185Z,3.08
2022-09-23T12:30:58.520Z,4.20
2022-09-23T12:33:30.271Z,3.80
2022-09-23T12:36:07.158Z,2.80
2022-09-23T12:38:40.314Z,3.95
2022-09-23T12:41:33.628Z,8.40
2022-09-23T12:44:13.486Z,4.10
2022-09-23T12:46:44.390Z,5.32
2022-09-23T12:49:29.179Z,6.27
2022-09-23T12:52:18.657Z,2.30
2022-09-23T12:54:47.459Z,5.13
2022-09-23T12:57:33.885Z,3.25
2022-09-23T13:00:06.594Z,3.13
2022-09-23T13:02:39.314Z,3.90
2022-09-23T13:05:27.623Z,3.85
2022-09-23T13:08:02.424Z,2.53
2022-09-23T13:10:38.211Z,2.83
2022-09-23T13:13:06.470Z,2.95
2022-09-23T13:15:35.480Z,4.07
2022-09-23T13:18:20.338Z,2.22
2022-09-23T13:20:51.298Z,2.97
2022-09-23T13:23:26.760Z,2.90
2022-09-23T13:25:57.114Z,3.45
2022-09-23T13:28:34.313Z,2.90
2022-09-23T13:31:14.063Z,2.63
2022-09-23T13:33:44.865Z,6.15
2022-09-23T13:36:19.467Z,3.88
2022-09-23T13:38:46.884Z,5.45
2022-09-23T13:41:20.004Z,2.53
2022-09-23T13:43:49.251Z,3.30
2022-09-23T13:46:22.482Z,2.90
2022-09-23T13:48:54.712Z,2.85
2022-09-23T13:51:31.562Z,3.40
2022-09-23T13:54:00.206Z,3.63
2022-09-23T13:56:29.901Z,2.90
2022-09-23T13:59:40.914Z,3.35
2022-09-23T14:02:16.112Z,2.55
2022-09-23T14:04:43.163Z,3.45
2022-09-23T14:07:12.124Z,2.07
2022-09-23T14:09:43.509Z,4.57
2022-09-23T14:12:10.954Z,2.85
2022-09-23T14:14:39.907Z,3.63
2022-09-23T14:17:08.696Z,3.17
2022-09-23T14:19:36.761Z,2.90
2022-09-23T14:22:03.668Z,3.92
2022-09-23T14:24:30.203Z,2.70
2022-09-23T14:27:01.450Z,3.03
2022-09-23T14:29:33.854Z,2.00
2022-09-23T14:32:04.240Z,3.60
2022-09-23T14:34:44.571Z,5.15
2022-09-23T14:37:51.167Z,2.10
2022-09-23T14:40:21.251Z,2.88
2022-09-23T14:43:15.685Z,3.90
2022-09-23T14:45:47.288Z,2.37
2022-09-23T14:48:22.490Z,2.67
2022-09-23T14:50:54.519Z,2.10
2022-09-23T14:53:23.812Z,4.05
2022-09-23T14:56:07.469Z,3.70
2022-09-23T14:58:51.043Z,4.20
2022-09-23T15:01:31.038Z,2.75
2022-09-23T15:04:18.636Z,2.45
2022-09-23T15:06:47.521Z,2.17
2022-09-23T15:09:23.662Z,2.33
2022-09-23T15:11:57.426Z,3.33
2022-09-23T15:14:37.926Z,2.25
2022-09-23T15:17:12.832Z,3.20
2022-09-23T15:19:39.504Z,3.28
2022-09-23T15:22:08.311Z,1.80
2022-09-23T15:24:40.670Z,1.70
2022-09-23T15:27:19.325Z,2.83
2022-09-23T15:29:46.876Z,1.88
2022-09-23T15:32:13.338Z,2.50
2022-09-23T15:34:39.836Z,3.20
2022-09-23T15:37:09.246Z,4.60
2022-09-23T15:39:36.546Z,3.13
2022-09-23T15:42:03.262Z,3.97
2022-09-23T15:44:29.923Z,1.80
2022-09-23T15:46:59.902Z,1.95
2022-09-23T15:49:34.072Z,2.10
2022-09-23T15:52:01.564Z,1.73
2022-09-23T15:54:29.210Z,1.85
2022-09-23T15:57:00.339Z,2.42
2022-09-23T15:59:28.544Z,4.93
2022-09-23T16:01:56.564Z,3.00
2022-09-23T16:04:23.668Z,4.22
2022-09-23T16:06:50.263Z,5.05
2022-09-23T16:09:16.823Z,3.13
2022-09-23T16:11:46.036Z,3.42
2022-09-23T16:14:17.279Z,2.43
2022-09-23T16:16:45.257Z,4.32
2022-09-23T16:19:12.365Z,3.33
2022-09-23T16:21:40.794Z,3.33
2022-09-23T16:24:18.314Z,3.05
2022-09-23T16:26:46.721Z,4.60
2022-09-23T16:29:13.515Z,4.72
2022-09-23T16:31:40.430Z,3.55
2022-09-23T16:34:07.239Z,3.28
2022-09-23T16:36:41.834Z,2.67
2022-09-23T16:39:12.014Z,4.57
2022-09-23T16:41:38.917Z,3.95
2022-09-23T16:44:09.193Z,3.17
2022-09-23T16:46:36.357Z,3.67
2022-09-23T16:49:03.110Z,2.55
2022-09-23T16:51:38.026Z,2.53
2022-09-23T16:54:12.492Z,3.45
2022-09-23T16:56:44.091Z,4.15
2022-09-23T16:59:12.400Z,3.15
2022-09-23T17:01:57.950Z,3.42
2022-09-23T17:04:24.602Z,4.80
2022-09-23T17:06:52.751Z,2.22
2022-09-23T17:09:21.275Z,2.70
2022-09-23T17:11:57.750Z,2.30
2022-09-23T17:14:24.478Z,2.47
2022-09-23T17:16:51.024Z,2.73
2022-09-23T17:19:17.592Z,2.20
2022-09-23T17:21:44.653Z,3.05
2022-09-23T17:24:11.404Z,30.10
2022-09-23T17:26:38.197Z,3.63
2022-09-23T17:29:05.521Z,3.00
2022-09-23T17:31:32.201Z,5.57
2022-09-23T17:33:58.804Z,2.78
2022-09-23T17:36:25.314Z,2.70
2022-09-23T17:38:54.680Z,3.00
2022-09-23T17:41:21.788Z,4.17
2022-09-23T17:43:53.655Z,4.28
2022-09-23T17:46:20.197Z,2.40
2022-09-23T17:48:46.958Z,2.53
2022-09-23T17:51:19.679Z,3.45
2022-09-23T17:53:47.354Z,2.20
2022-09-23T17:56:15.316Z,5.70
2022-09-23T17:58:42.902Z,3.97
2022-09-23T18:01:14.636Z,3.03
2022-09-23T18:03:44.183Z,3.25
2022-09-23T18:06:16.490Z,5.90
2022-09-23T18:08:44.562Z,4.28
2022-09-23T18:11:19.585Z,3.90
2022-09-23T18:13:54.450Z,2.97
2022-09-23T18:16:23.545Z,5.05
2022-09-23T18:18:54.657Z,6.40
2022-09-23T18:21:22.498Z,4.03
2022-09-23T18:23:49.543Z,7.28
2022-09-23T18:26:18.788Z,3.65
2022-09-23T18:28:45.374Z,3.40
2022-09-23T18:31:12.272Z,3.80
2022-09-23T18:33:39.147Z,5.47
2022-09-23T18:36:06.854Z,6.22
2022-09-23T18:38:33.390Z,4.65
2022-09-23T18:41:00.509Z,6.20
2022-09-23T18:43:41.358Z,5.23
2022-09-23T18:46:13.645Z,5.00
2022-09-23T18:48:59.517Z,3.40
2022-09-23T18:51:28.965Z,6.30
2022-09-23T18:53:59.403Z,6.75
2022-09-23T18:56:29.594Z,5.13
2022-09-23T18:58:56.779Z,3.80
2022-09-23T19:01:24.184Z,4.97
2022-09-23T19:03:55.882Z,6.18
2022-09-23T19:06:23.043Z,7.50
2022-09-23T19:08:51.482Z,9.27
2022-09-23T19:11:18.513Z,6.68
2022-09-23T19:13:45.323Z,10.23
2022-09-23T19:16:16.436Z,7.60
2022-09-23T19:18:46.331Z,8.82
2022-09-23T19:21:14.508Z,10.67
2022-09-23T19:23:49.167Z,15.68
2022-09-23T19:26:19.015Z,10.18
2022-09-23T19:28:53.685Z,12.88
2022-09-23T19:31:23.535Z,11.93
2022-09-23T19:33:56.814Z,11.93
2022-09-23T19:36:26.007Z,13.18
2022-09-23T19:38:54.295Z,9.98
2022-09-23T19:41:20.776Z,14.80
2022-09-23T19:43:48.613Z,12.27
2022-09-23T19:46:15.609Z,10.37
2022-09-23T19:48:42.387Z,9.82
2022-09-23T19:51:08.885Z,10.98
2022-09-23T19:53:35.364Z,8.18
2022-09-23T19:56:04.823Z,11.18
2022-09-23T19:58:32.993Z,12.63
2022-09-23T20:00:59.618Z,9.18
2022-09-23T20:03:26.944Z,8.98
2022-09-23T20:05:56.973Z,7.45
2022-09-23T20:08:24.167Z,9.63
2022-09-23T20:10:50.738Z,8.60
2022-09-23T20:13:19.881Z,10.05
2022-09-23T20:15:48.190Z,12.70
2022-09-23T20:18:15.314Z,9.23
2022-09-23T20:20:41.898Z,9.43
2022-09-23T20:23:08.395Z,8.10
2022-09-23T20:25:54.803Z,9.20
2022-09-23T20:28:22.254Z,13.48
2022-09-23T20:30:48.922Z,10.57
2022-09-23T20:33:15.653Z,13.45
2022-09-23T20:35:43.754Z,10.30
2022-09-23T20:38:10.619Z,12.75
2022-09-23T20:40:38.426Z,11.60
2022-09-23T20:43:05.193Z,11.15
2022-09-23T20:45:31.885Z,12.73
2022-09-23T20:48:00.099Z,11.60
2022-09-23T20:50:26.657Z,13.48
2022-09-23T20:52:53.188Z,12.82
2022-09-23T20:55:19.664Z,13.90
2022-09-23T20:57:48.352Z,16.08
2022-09-23T21:00:15.561Z,15.00
2022-09-23T21:02:43.271Z,14.55
2022-09-23T21:05:10.415Z,17.58
2022-09-23T21:07:37.427Z,13.18
2022-09-23T21:10:06.788Z,13.65
2022-09-23T21:12:33.282Z,13.93
2022-09-23T21:14:59.707Z,13.43
2022-09-23T21:17:26.806Z,12.57
2022-09-23T21:19:53.246Z,14.77
2022-09-23T21:22:19.714Z,12.88
2022-09-23T21:25:25.968Z,13.00
2022-09-23T21:27:37.073Z,13.18
2022-09-23T21:30:04.630Z,13.25
2022-09-23T21:32:31.190Z,12.57
2022-09-23T21:34:57.658Z,12.73
2022-09-23T21:37:25.357Z,9.97
2022-09-23T21:40:10.406Z,12.13
2022-09-23T21:42:36.986Z,17.60
2022-09-23T21:45:05.154Z,11.50
2022-09-23T21:47:32.327Z,12.75
2022-09-23T21:49:58.787Z,14.80
2022-09-23T21:52:25.230Z,10.40
2022-09-23T21:54:51.976Z,12.43
2022-09-23T21:57:18.447Z,13.20
2022-09-23T21:59:44.943Z,14.50
2022-09-23T22:02:11.417Z,19.73
2022-09-23T22:04:38.024Z,16.50
2022-09-23T22:07:04.719Z,16.02
2022-09-23T22:09:31.286Z,16.08
2022-09-23T22:12:11.586Z,15.23
2022-09-23T22:14:39.306Z,15.63
2022-09-23T22:17:07.755Z,17.25
2022-09-23T22:19:40.320Z,14.95
2022-09-23T22:22:15.036Z,12.93
2022-09-23T22:24:46.270Z,15.88
2022-09-23T22:27:14.505Z,15.27
2022-09-23T22:29:59.778Z,14.57
2022-09-23T22:32:40.413Z,18.48
2022-09-23T22:35:17.723Z,16.48
2022-09-23T22:37:44.923Z,16.42
2022-09-23T22:40:14.328Z,11.47
2022-09-23T22:42:42.240Z,15.00
2022-09-23T22:45:10.427Z,15.68
2022-09-23T22:47:38.773Z,14.10
2022-09-23T22:50:06.961Z,15.25
2022-09-23T22:52:33.575Z,12.57
2022-09-23T22:55:00.237Z,12.55
2022-09-23T22:57:26.771Z,11.82
2022-09-23T22:59:53.245Z,12.38
2022-09-23T23:02:22.326Z,14.95
2022-09-23T23:04:49.358Z,16.37
2022-09-23T23:07:20.189Z,12.88
2022-09-23T23:09:51.078Z,13.82
2022-09-23T23:12:19.850Z,12.10
2022-09-23T23:14:46.964Z,12.77
2022-09-23T23:17:13.639Z,11.43
2022-09-23T23:19:40.163Z,13.10
2022-09-23T23:22:06.647Z,12.95
2022-09-23T23:24:33.173Z,14.45
2022-09-23T23:26:59.646Z,12.15
2022-09-23T23:29:26.094Z,15.37
2022-09-23T23:31:52.672Z,11.77
2022-09-23T23:34:21.260Z,12.13
2022-09-23T23:36:54.568Z,13.57
2022-09-23T23:39:23.463Z,11.43
2022-09-23T23:41:57.711Z,10.83
2022-09-23T23:44:25.731Z,11.40
2022-09-23T23:46:53.328Z,11.75
2022-09-23T23:49:20.188Z,10.45
2022-09-23T23:51:47.773Z,11.88
2022-09-23T23:54:15.322Z,11.63
2022-09-23T23:56:42.070Z,11.60
2022-09-23T23:59:08.585Z,10.90
